createdAt,value
2023-03-01T00:02:27.835Z,27.10
2023-03-01T00:04:56.142Z,27.10
2023-03-01T00:07:24.489Z,27.00
2023-03-01T00:09:52.543Z,27.10
2023-03-01T00:12:20.749Z,27.10
2023-03-01T00:14:49.260Z,27.00
2023-03-01T00:17:17.598Z,27.00
2023-03-01T00:19:45.690Z,27.10
2023-03-01T00:22:13.941Z,27.00
2023-03-01T00:24:42.210Z,27.10
2023-03-01T00:27:10.567Z,27.00
2023-03-01T00:29:38.839Z,27.00
2023-03-01T00:32:07.551Z,27.00
2023-03-01T00:34:35.788Z,27.00
2023-03-01T00:37:03.905Z,27.00
2023-03-01T00:39:32.856Z,27.00
2023-03-01T00:42:01.343Z,27.00
2023-03-01T00:44:29.881Z,27.00
2023-03-01T00:46:58.214Z,27.00
2023-03-01T00:49:26.433Z,27.00
2023-03-01T00:51:55.036Z,27.00
2023-03-01T00:54:25.456Z,27.00
2023-03-01T00:56:53.734Z,26.90
2023-03-01T00:59:22.117Z,26.90
2023-03-01T01:01:50.366Z,26.90
2023-03-01T01:04:18.754Z,26.90
2023-03-01T01:06:48.120Z,26.90
2023-03-01T01:09:18.741Z,26.80
2023-03-01T01:11:49.486Z,26.80
2023-03-01T01:14:18.252Z,26.80
2023-03-01T01:16:46.765Z,26.80
2023-03-01T01:19:15.546Z,26.80
2023-03-01T01:21:44.103Z,26.70
2023-03-01T01:24:13.014Z,26.70
2023-03-01T01:26:41.301Z,26.70
2023-03-01T01:29:09.865Z,26.70
2023-03-01T01:31:40.593Z,26.70
2023-03-01T01:34:14.020Z,26.60
2023-03-01T01:36:42.425Z,26.60
2023-03-01T01:39:11.182Z,26.60
2023-03-01T01:41:39.509Z,26.50
2023-03-01T01:44:29.016Z,26.50
2023-03-01T01:47:05.315Z,26.60
2023-03-01T01:49:45.652Z,26.50
2023-03-01T01:52:21.289Z,26.50
2023-03-01T01:55:08.535Z,26.50
2023-03-01T01:57:44.942Z,26.40
2023-03-01T02:00:20.814Z,26.40
2023-03-01T02:02:51.578Z,26.40
2023-03-01T02:05:56.934Z,26.40
2023-03-01T02:08:28.661Z,26.40
2023-03-01T02:10:58.794Z,26.40
2023-03-01T02:13:27.797Z,26.40
2023-03-01T02:15:56.611Z,26.40
2023-03-01T02:18:26.275Z,26.40
2023-03-01T02:21:18.136Z,26.40
2023-03-01T02:23:46.550Z,26.40
2023-03-01T02:26:25.281Z,26.40
2023-03-01T02:28:53.704Z,26.40
2023-03-01T02:31:23.278Z,26.40
2023-03-01T02:33:52.772Z,26.40
2023-03-01T02:36:26.795Z,26.40
2023-03-01T02:38:59.687Z,26.40
2023-03-01T02:41:32.492Z,26.40
2023-03-01T02:44:00.908Z,26.40
2023-03-01T02:46:29.659Z,26.40
2023-03-01T02:48:59.414Z,26.40
2023-03-01T02:51:52.542Z,26.40
2023-03-01T02:54:31.982Z,26.40
2023-03-01T02:57:01.505Z,26.40
2023-03-01T02:59:36.532Z,26.40
2023-03-01T03:02:04.744Z,26.40
2023-03-01T03:04:32.971Z,26.40
2023-03-01T03:07:01.426Z,26.40
2023-03-01T03:09:29.643Z,26.40
2023-03-01T03:11:58.266Z,26.40
2023-03-01T03:14:26.859Z,26.40
2023-03-01T03:16:55.428Z,26.30
2023-03-01T03:19:23.885Z,26.30
2023-03-01T03:21:52.129Z,26.30
2023-03-01T03:24:20.371Z,26.30
2023-03-01T03:26:48.693Z,26.30
2023-03-01T03:29:16.865Z,26.30
2023-03-01T03:31:45.205Z,26.30
2023-03-01T03:34:13.346Z,26.30
2023-03-01T03:36:41.666Z,26.30
2023-03-01T03:39:09.855Z,26.30
2023-03-01T03:41:38.041Z,26.20
2023-03-01T03:44:06.407Z,26.20
2023-03-01T03:46:34.760Z,26.10
2023-03-01T03:49:03.198Z,26.00
2023-03-01T03:51:31.344Z,26.00
2023-03-01T03:53:59.693Z,26.00
2023-03-01T03:56:28.847Z,26.00
2023-03-01T03:58:57.324Z,26.00
2023-03-01T04:01:25.594Z,26.00
2023-03-01T04:03:53.915Z,26.00
2023-03-01T04:06:22.320Z,25.90
2023-03-01T04:08:50.445Z,25.90
2023-03-01T04:11:18.731Z,25.90
2023-03-01T04:13:46.806Z,25.90
2023-03-01T04:16:15.066Z,25.90
2023-03-01T04:18:43.459Z,25.80
2023-03-01T04:21:11.691Z,25.80
2023-03-01T04:23:40.420Z,25.80
2023-03-01T04:26:09.522Z,25.80
2023-03-01T04:28:40.693Z,25.80
2023-03-01T04:31:12.679Z,25.80
2023-03-01T04:33:50.153Z,25.80
2023-03-01T04:36:20.288Z,25.80
2023-03-01T04:38:48.625Z,25.80
2023-03-01T04:41:20.298Z,25.80
2023-03-01T04:43:48.500Z,25.80
2023-03-01T04:46:19.453Z,25.80
2023-03-01T04:48:48.646Z,25.80
2023-03-01T04:51:17.213Z,25.70
2023-03-01T04:53:45.818Z,25.70
2023-03-01T04:56:15.312Z,25.70
2023-03-01T04:58:43.863Z,25.70
2023-03-01T05:01:17.939Z,25.70
2023-03-01T05:03:47.770Z,25.70
2023-03-01T05:06:16.740Z,25.80
2023-03-01T05:08:45.797Z,25.80
2023-03-01T05:11:14.063Z,25.80
2023-03-01T05:13:42.351Z,25.80
2023-03-01T05:16:11.769Z,25.70
2023-03-01T05:18:43.048Z,25.70
2023-03-01T05:21:14.401Z,25.70
2023-03-01T05:23:42.574Z,25.70
2023-03-01T05:26:25.845Z,25.70
2023-03-01T05:28:56.409Z,25.70
2023-03-01T05:31:24.811Z,25.70
2023-03-01T05:33:53.790Z,25.70
2023-03-01T05:36:21.895Z,25.70
2023-03-01T05:38:50.382Z,25.70
2023-03-01T05:41:18.626Z,25.70
2023-03-01T05:43:46.947Z,25.70
2023-03-01T05:46:15.316Z,25.70
2023-03-01T05:48:43.564Z,25.80
2023-03-01T05:51:11.920Z,25.80
2023-03-01T05:53:40.152Z,25.80
2023-03-01T05:56:08.413Z,25.80
2023-03-01T05:58:36.830Z,25.80
2023-03-01T06:01:05.235Z,25.80
2023-03-01T06:03:33.515Z,25.80
2023-03-01T06:06:01.730Z,25.80
2023-03-01T06:08:30.282Z,25.80
2023-03-01T06:10:59.952Z,25.80
2023-03-01T06:13:28.249Z,25.80
2023-03-01T06:15:56.658Z,25.80
2023-03-01T06:18:24.938Z,25.80
2023-03-01T06:20:57.057Z,25.80
2023-03-01T06:23:26.643Z,25.80
2023-03-01T06:25:55.125Z,25.80
2023-03-01T06:28:23.706Z,25.80
2023-03-01T06:30:52.525Z,25.80
2023-03-01T06:33:21.486Z,25.80
2023-03-01T06:35:49.895Z,25.70
2023-03-01T06:38:18.693Z,25.70
2023-03-01T06:40:47.097Z,25.70
2023-03-01T06:43:15.311Z,25.70
2023-03-01T06:45:43.618Z,25.60
2023-03-01T06:48:11.964Z,25.70
2023-03-01T06:50:40.292Z,25.70
2023-03-01T06:53:08.727Z,25.60
2023-03-01T06:55:37.186Z,25.70
2023-03-01T06:58:05.526Z,25.70
2023-03-01T07:00:34.311Z,25.60
2023-03-01T07:03:03.565Z,25.60
2023-03-01T07:05:32.246Z,25.60
2023-03-01T07:08:00.630Z,25.60
2023-03-01T07:10:29.065Z,25.60
2023-03-01T07:12:58.801Z,25.60
2023-03-01T07:15:29.052Z,25.60
2023-03-01T07:17:58.475Z,25.60
2023-03-01T07:20:26.873Z,25.60
2023-03-01T07:22:57.171Z,25.60
2023-03-01T07:25:26.034Z,25.70
2023-03-01T07:27:54.953Z,25.70
2023-03-01T07:30:23.429Z,25.60
2023-03-01T07:32:53.520Z,25.60
2023-03-01T07:35:24.260Z,25.60
2023-03-01T07:37:52.676Z,25.60
2023-03-01T07:40:21.322Z,25.60
2023-03-01T07:42:49.504Z,25.70
2023-03-01T07:45:17.868Z,25.70
2023-03-01T07:47:46.196Z,25.70
2023-03-01T07:50:14.527Z,25.70
2023-03-01T07:52:42.824Z,25.70
2023-03-01T07:55:11.152Z,25.70
2023-03-01T07:57:39.484Z,25.80
2023-03-01T08:00:09.630Z,25.80
2023-03-01T08:02:41.173Z,25.90
2023-03-01T08:05:10.570Z,25.90
2023-03-01T08:07:38.894Z,25.90
2023-03-01T08:10:07.507Z,25.90
2023-03-01T08:12:35.731Z,26.00
2023-03-01T08:15:04.256Z,26.00
2023-03-01T08:17:32.325Z,26.10
2023-03-01T08:20:00.686Z,26.10
2023-03-01T08:22:29.002Z,26.20
2023-03-01T08:24:57.317Z,26.30
2023-03-01T08:27:25.629Z,26.30
2023-03-01T08:29:54.103Z,26.30
2023-03-01T08:32:22.702Z,26.30
2023-03-01T08:34:51.091Z,26.40
2023-03-01T08:37:19.268Z,26.40
2023-03-01T08:39:48.198Z,26.50
2023-03-01T08:42:16.484Z,26.60
2023-03-01T08:44:46.054Z,26.60
2023-03-01T08:47:16.048Z,26.70
2023-03-01T08:49:44.313Z,26.70
2023-03-01T08:52:12.562Z,26.80
2023-03-01T08:54:40.909Z,26.90
2023-03-01T08:57:09.010Z,26.90
2023-03-01T08:59:37.199Z,26.90
2023-03-01T09:02:07.675Z,27.00
2023-03-01T09:04:36.103Z,27.10
2023-03-01T09:07:04.201Z,27.10
2023-03-01T09:09:32.605Z,27.10
2023-03-01T09:12:00.793Z,27.10
2023-03-01T09:14:29.166Z,27.20
2023-03-01T09:16:57.595Z,27.20
2023-03-01T09:19:27.358Z,27.20
2023-03-01T09:21:55.744Z,27.30
2023-03-01T09:24:26.083Z,27.40
2023-03-01T09:26:57.682Z,27.50
2023-03-01T09:29:26.372Z,27.50
2023-03-01T09:31:54.557Z,27.70
2023-03-01T09:34:23.810Z,27.70
2023-03-01T09:36:52.761Z,27.70
2023-03-01T09:39:21.081Z,27.70
2023-03-01T09:42:00.836Z,27.80
2023-03-01T09:44:37.619Z,27.80
2023-03-01T09:47:06.928Z,27.90
2023-03-01T09:49:41.754Z,28.00
2023-03-01T09:52:43.036Z,28.00
2023-03-01T09:55:28.403Z,28.10
2023-03-01T09:58:18.165Z,28.10
2023-03-01T10:00:52.108Z,28.20
2023-03-01T10:03:33.673Z,28.20
2023-03-01T10:06:34.069Z,28.30
2023-03-01T10:09:14.105Z,28.30
2023-03-01T10:11:54.413Z,28.30
2023-03-01T10:14:31.820Z,28.30
2023-03-01T10:17:10.938Z,28.30
2023-03-01T10:19:42.713Z,28.40
2023-03-01T10:22:21.208Z,28.40
2023-03-01T10:24:51.296Z,28.30
2023-03-01T10:27:26.490Z,28.40
2023-03-01T10:30:22.744Z,28.40
2023-03-01T10:32:53.767Z,28.30
2023-03-01T10:35:30.733Z,28.40
2023-03-01T10:38:10.589Z,28.30
2023-03-01T10:40:58.696Z,28.40
2023-03-01T10:43:49.959Z,28.40
2023-03-01T10:46:27.590Z,28.40
2023-03-01T10:49:17.428Z,28.50
2023-03-01T10:51:47.947Z,28.60
2023-03-01T10:54:20.376Z,28.60
2023-03-01T10:57:00.644Z,28.70
2023-03-01T10:59:31.334Z,28.80
2023-03-01T11:02:23.425Z,28.80
2023-03-01T11:05:02.887Z,28.90
2023-03-01T11:07:31.599Z,28.90
2023-03-01T11:10:01.055Z,28.90
2023-03-01T11:12:29.397Z,29.10
2023-03-01T11:14:59.659Z,29.00
2023-03-01T11:17:34.685Z,29.10
2023-03-01T11:20:30.973Z,29.10
2023-03-01T11:23:07.176Z,29.20
2023-03-01T11:25:40.535Z,29.20
2023-03-01T11:28:14.114Z,29.20
2023-03-01T11:30:53.104Z,29.10
2023-03-01T11:33:51.812Z,29.10
2023-03-01T11:36:28.787Z,29.20
2023-03-01T11:38:58.961Z,29.10
2023-03-01T11:41:34.009Z,29.20
2023-03-01T11:44:26.987Z,29.20
2023-03-01T11:47:01.385Z,29.40
2023-03-01T11:50:09.294Z,29.40
2023-03-01T11:53:27.229Z,29.30
2023-03-01T11:56:04.637Z,29.40
2023-03-01T11:58:47.444Z,29.50
2023-03-01T12:01:46.240Z,29.40
2023-03-01T12:04:23.780Z,29.20
2023-03-01T12:06:59.855Z,29.20
2023-03-01T12:09:40.175Z,29.30
2023-03-01T12:12:19.005Z,29.30
2023-03-01T12:15:11.633Z,29.30
2023-03-01T12:17:56.221Z,29.50
2023-03-01T12:20:33.821Z,29.40
2023-03-01T12:23:50.511Z,29.40
2023-03-01T12:26:30.592Z,29.40
2023-03-01T12:29:10.764Z,29.20
2023-03-01T12:32:12.960Z,29.20
2023-03-01T12:35:08.901Z,29.00
2023-03-01T12:37:52.669Z,29.20
2023-03-01T12:40:45.671Z,29.20
2023-03-01T12:43:51.178Z,29.20
2023-03-01T12:46:53.397Z,29.10
2023-03-01T12:49:28.248Z,29.10
2023-03-01T12:52:08.711Z,29.10
2023-03-01T12:54:46.054Z,29.10
2023-03-01T12:57:42.062Z,29.20
2023-03-01T13:00:31.933Z,29.20
2023-03-01T13:03:08.968Z,29.30
2023-03-01T13:05:43.432Z,29.30
2023-03-01T13:08:20.842Z,29.30
2023-03-01T13:10:53.718Z,29.40
2023-03-01T13:13:24.904Z,29.30
2023-03-01T13:15:54.709Z,29.30
2023-03-01T13:18:22.927Z,29.30
2023-03-01T13:20:59.414Z,29.40
2023-03-01T13:23:32.625Z,29.40
2023-03-01T13:26:03.841Z,29.40
2023-03-01T13:28:47.112Z,29.40
2023-03-01T13:31:21.531Z,29.40
2023-03-01T13:34:03.999Z,29.40
2023-03-01T13:36:32.439Z,29.40
2023-03-01T13:39:03.194Z,29.40
2023-03-01T13:41:40.718Z,29.50
2023-03-01T13:44:24.607Z,29.50
2023-03-01T13:46:54.946Z,29.40
2023-03-01T13:49:31.474Z,29.50
2023-03-01T13:52:04.132Z,29.50
2023-03-01T13:54:34.725Z,29.60
2023-03-01T13:57:03.861Z,29.60
2023-03-01T13:59:32.351Z,29.60
2023-03-01T14:02:03.261Z,29.60
2023-03-01T14:04:33.993Z,29.50
2023-03-01T14:07:13.725Z,29.50
2023-03-01T14:09:46.385Z,29.70
2023-03-01T14:12:51.593Z,29.70
2023-03-01T14:15:34.184Z,29.70
2023-03-01T14:18:08.532Z,29.80
2023-03-01T14:20:42.957Z,29.90
2023-03-01T14:23:19.040Z,30.00
2023-03-01T14:25:52.534Z,29.90
2023-03-01T14:28:27.451Z,29.90
2023-03-01T14:30:58.218Z,29.90
2023-03-01T14:33:33.000Z,29.80
2023-03-01T14:36:08.614Z,29.90
2023-03-01T14:38:45.420Z,30.00
2023-03-01T14:41:20.392Z,30.10
2023-03-01T14:44:00.526Z,29.90
2023-03-01T14:46:39.227Z,29.80
2023-03-01T14:49:21.970Z,29.80
2023-03-01T14:52:20.172Z,29.90
2023-03-01T14:54:54.821Z,30.10
2023-03-01T14:57:27.244Z,30.00
2023-03-01T14:59:59.127Z,30.00
2023-03-01T15:02:27.979Z,30.20
2023-03-01T15:05:06.158Z,30.10
2023-03-01T15:07:44.057Z,29.90
2023-03-01T15:10:24.119Z,30.10
2023-03-01T15:12:52.624Z,30.10
2023-03-01T15:15:42.867Z,30.20
2023-03-01T15:18:28.302Z,30.10
2023-03-01T15:20:57.447Z,30.10
2023-03-01T15:23:28.951Z,30.10
2023-03-01T15:25:58.726Z,30.20
2023-03-01T15:28:33.160Z,30.20
2023-03-01T15:31:20.147Z,30.40
2023-03-01T15:33:48.620Z,30.30
2023-03-01T15:36:35.212Z,30.50
2023-03-01T15:39:05.958Z,30.70
2023-03-01T15:41:42.178Z,30.80
2023-03-01T15:44:41.542Z,30.70
2023-03-01T15:47:27.633Z,31.00
2023-03-01T15:49:57.104Z,31.10
2023-03-01T15:52:29.069Z,31.20
2023-03-01T15:55:06.009Z,30.90
2023-03-01T15:57:34.324Z,31.10
2023-03-01T16:00:02.471Z,30.80
2023-03-01T16:02:33.031Z,30.90
2023-03-01T16:05:01.373Z,31.20
2023-03-01T16:07:31.004Z,31.30
2023-03-01T16:09:59.761Z,31.20
2023-03-01T16:12:27.914Z,31.40
2023-03-01T16:14:56.251Z,31.50
2023-03-01T16:17:24.509Z,31.70
2023-03-01T16:19:52.895Z,31.80
2023-03-01T16:22:21.425Z,31.70
2023-03-01T16:24:49.765Z,31.70
2023-03-01T16:27:18.068Z,31.80
2023-03-01T16:29:46.472Z,31.90
2023-03-01T16:32:14.680Z,32.00
2023-03-01T16:34:42.980Z,32.10
2023-03-01T16:37:11.312Z,31.90
2023-03-01T16:39:40.492Z,32.10
2023-03-01T16:42:08.937Z,32.20
2023-03-01T16:44:37.320Z,32.10
2023-03-01T16:47:05.605Z,31.70
2023-03-01T16:49:33.976Z,31.40
2023-03-01T16:52:02.267Z,31.30
2023-03-01T16:54:30.588Z,31.50
2023-03-01T16:56:58.868Z,31.40
2023-03-01T16:59:27.164Z,31.80
2023-03-01T17:01:55.433Z,32.00
2023-03-01T17:04:23.827Z,32.20
2023-03-01T17:06:52.038Z,32.30
2023-03-01T17:09:20.385Z,32.40
2023-03-01T17:11:48.632Z,32.50
2023-03-01T17:14:17.578Z,32.20
2023-03-01T17:16:46.040Z,32.00
2023-03-01T17:19:14.634Z,32.00
2023-03-01T17:21:42.813Z,32.00
2023-03-01T17:24:11.359Z,31.60
2023-03-01T17:26:40.441Z,31.50
2023-03-01T17:29:09.231Z,31.70
2023-03-01T17:31:37.353Z,31.90
2023-03-01T17:34:05.576Z,32.00
2023-03-01T17:49:34.267Z,31.50
2023-03-01T17:52:02.588Z,30.80
2023-03-01T17:54:30.893Z,30.70
2023-03-01T17:56:59.448Z,30.70
2023-03-01T17:59:27.784Z,30.60
2023-03-01T18:01:56.083Z,30.50
2023-03-01T18:04:24.953Z,30.20
2023-03-01T18:06:53.240Z,29.70
2023-03-01T18:09:21.494Z,30.00
2023-03-01T18:11:49.764Z,30.00
2023-03-01T18:14:17.905Z,30.00
2023-03-01T18:16:46.292Z,29.80
2023-03-01T18:19:14.536Z,29.70
2023-03-01T18:21:42.854Z,29.70
2023-03-01T18:24:11.147Z,29.60
2023-03-01T18:26:40.365Z,29.50
2023-03-01T18:29:09.145Z,29.40
2023-03-01T18:31:37.370Z,29.30
2023-03-01T18:34:05.681Z,29.20
2023-03-01T18:36:36.047Z,29.20
2023-03-01T18:39:06.609Z,29.20
2023-03-01T18:41:35.959Z,29.10
2023-03-01T18:44:05.631Z,29.00
2023-03-01T18:46:37.234Z,28.90
2023-03-01T18:49:06.712Z,28.80
2023-03-01T18:51:35.509Z,28.80
2023-03-01T18:54:05.027Z,28.70
2023-03-01T18:56:35.290Z,28.60
2023-03-01T18:59:03.553Z,28.60
2023-03-01T19:01:36.672Z,28.50
2023-03-01T19:04:05.688Z,28.50
2023-03-01T19:06:35.616Z,28.40
2023-03-01T19:09:04.938Z,28.40
2023-03-01T19:11:33.632Z,28.40
2023-03-01T19:14:03.041Z,28.40
2023-03-01T19:16:33.406Z,28.40
2023-03-01T19:19:04.361Z,28.30
2023-03-01T19:21:33.900Z,28.40
2023-03-01T19:24:02.748Z,28.30
2023-03-01T19:26:32.319Z,28.30
2023-03-01T19:29:01.198Z,28.40
2023-03-01T19:31:30.771Z,28.40
2023-03-01T19:34:11.018Z,28.40
2023-03-01T19:36:44.578Z,28.40
2023-03-01T19:39:14.370Z,28.40
2023-03-01T19:41:43.800Z,28.40
2023-03-01T19:44:12.565Z,28.40
2023-03-01T19:46:41.505Z,28.40
2023-03-01T19:49:10.678Z,28.30
2023-03-01T19:51:39.232Z,28.30
2023-03-01T19:54:07.726Z,28.20
2023-03-01T19:56:36.234Z,28.20
2023-03-01T19:59:04.936Z,28.20
2023-03-01T20:01:35.039Z,28.20
2023-03-01T20:04:04.415Z,28.20
2023-03-01T20:06:33.179Z,28.10
2023-03-01T20:09:15.378Z,28.10
2023-03-01T20:11:49.246Z,28.10
2023-03-01T20:14:17.688Z,28.10
2023-03-01T20:16:46.116Z,28.10
2023-03-01T20:19:14.503Z,28.10
2023-03-01T20:21:43.027Z,28.10
2023-03-01T20:24:11.302Z,28.00
2023-03-01T20:26:40.173Z,28.00
2023-03-01T20:29:08.993Z,28.00
2023-03-01T20:31:37.330Z,27.90
2023-03-01T20:34:05.720Z,28.00
2023-03-01T20:36:34.539Z,27.90
2023-03-01T20:39:03.204Z,27.90
2023-03-01T20:41:32.187Z,27.90
2023-03-01T20:44:00.462Z,27.90
2023-03-01T20:46:28.845Z,27.90
2023-03-01T20:48:57.152Z,27.90
2023-03-01T20:51:25.762Z,27.80
2023-03-01T20:53:54.516Z,27.90
2023-03-01T20:56:23.565Z,27.80
2023-03-01T20:59:08.718Z,27.80
2023-03-01T21:01:37.838Z,27.80
2023-03-01T21:04:06.410Z,27.80
2023-03-01T21:06:34.875Z,27.80
2023-03-01T21:09:04.627Z,27.70
2023-03-01T21:11:32.910Z,27.80
2023-03-01T21:14:01.171Z,27.70
2023-03-01T21:16:29.748Z,27.70
2023-03-01T21:19:00.465Z,27.70
2023-03-01T21:21:29.158Z,27.80
2023-03-01T21:23:57.377Z,27.70
2023-03-01T21:26:27.754Z,27.80
2023-03-01T21:29:00.849Z,27.70
2023-03-01T21:31:32.673Z,27.70
2023-03-01T21:34:02.641Z,27.70
2023-03-01T21:36:31.596Z,27.70
2023-03-01T21:39:01.823Z,27.70
2023-03-01T21:41:33.352Z,27.70
2023-03-01T21:44:03.573Z,27.70
2023-03-01T21:46:34.980Z,27.70
2023-03-01T21:49:04.861Z,27.70
2023-03-01T21:51:33.615Z,27.70
2023-03-01T21:54:01.908Z,27.70
2023-03-01T21:56:32.659Z,27.70
2023-03-01T21:59:01.825Z,27.70
2023-03-01T22:01:30.317Z,27.70
2023-03-01T22:04:00.498Z,27.70
2023-03-01T22:06:34.282Z,27.70
2023-03-01T22:09:06.061Z,27.60
2023-03-01T22:35:26.962Z,27.60
2023-03-01T22:37:55.296Z,27.70
2023-03-01T22:40:23.644Z,27.60
2023-03-01T22:42:51.902Z,27.70
2023-03-01T22:45:20.183Z,27.60
2023-03-01T22:47:48.382Z,27.60
2023-03-01T22:50:17.134Z,27.60
2023-03-01T22:52:45.411Z,27.50
2023-03-01T22:55:13.918Z,27.40
2023-03-01T22:57:42.243Z,27.40
2023-03-01T23:00:11.511Z,27.30
2023-03-01T23:02:40.867Z,27.20
2023-03-01T23:05:10.435Z,27.20
2023-03-01T23:07:38.846Z,27.10
2023-03-01T23:10:07.647Z,27.10
2023-03-01T23:12:35.898Z,27.00
2023-03-01T23:15:04.603Z,27.00
2023-03-01T23:17:33.066Z,27.00
2023-03-01T23:20:01.672Z,27.00
2023-03-01T23:22:31.572Z,26.90
2023-03-01T23:24:59.890Z,26.90
2023-03-01T23:27:28.102Z,26.80
2023-03-01T23:29:56.889Z,26.80
2023-03-01T23:32:25.046Z,26.80
2023-03-01T23:34:53.609Z,26.80
2023-03-01T23:37:21.906Z,26.80
2023-03-01T23:39:50.190Z,26.80
2023-03-01T23:42:18.651Z,26.80
2023-03-01T23:44:46.997Z,26.80
2023-03-01T23:47:15.388Z,26.80
2023-03-01T23:49:43.685Z,26.80
2023-03-01T23:52:14.822Z,26.80
2023-03-01T23:54:43.976Z,26.80
2023-03-01T23:57:12.338Z,26.80
2023-03-01T23:59:40.722Z,26.80
